Terminal Aerodrome Forecast
Issued by NWS Blacksburg, VA

Current Version | Previous Version | Graphics & Text | Print | Product List | Glossary On
Versions: 1 2 3 4 5 6 7 8 9 10 11 12 13 14 15 16 17 18 19 20
000
FTUS41 KRNK 201244 AAA
TAFBLF
TAF AMD
KBLF 201244Z 2013/2112 26005KT P6SM SCT015
      TEMPO 2013/2015 BKN015
     FM210000 VRB02KT P6SM SKC
     FM210300 VRB03KT 4SM BR SCT040 BKN250=

USA.gov is the U.S. government's official web portal to all federal, state and local government web resources and services.